San Diego, CA

4:57 PM PDT on August 20, 2014 (GMT -0700)
San Diego International-Lindbergh | Change Station
CLOSE
Current Station
Airport
Location: San Diego,
Elevation: 30 ft
Nearby Weather Stations

Elev 30 ft 32.73 °N, 117.18 °W | Updated 6 minutes ago

Mostly Cloudy
Mostly Cloudy
76 °F
Feels Like 76 °F
N
9
Wind Variable Wind from WNW

Today
High -- | Low -- °F
--% Chance of Precip.
Yesterday
High -- | Low -- °F
Precip. -- in
6:15 AM 7:27 PM
Waning Crescent, 18% visible
Pressure 29.90 in
Visibility 10.0 miles
Clouds Few 2300 ft
Scattered Clouds 5000 ft
Mostly Cloudy 14000 ft
Mostly Cloudy 18000 ft
Dew Point 61 °F
Humidity 60%
Rainfall 0.01 in
Snow Depth Not available.
UV 2 out of 12
Pollen 5.00 out of 12
Ozone Good
PM2.5 Good
Flu Activity Not available.
METAR KSAN 202351Z 30008KT 10SM FEW023 SCT050 BKN140 BKN180 24/16 A2990 RMK AO2 SLP125 60001 T02440161 10250 20217 56013

More Conditions Fewer Conditions

Pressure 29.90 in
Visibility 10.0 miles
Clouds Few 2300 ft
Scattered Clouds 5000 ft
Mostly Cloudy 14000 ft
Mostly Cloudy 18000 ft
Dew Point 61 °F
Humidity 60%
Rainfall 0.01 in
Snow Depth Not available.
UV 2 out of 12
Pollen 5.00 out of 12
Ozone Good
PM2.5 Good
Flu Activity Not available.
METAR KSAN 202351Z 30008KT 10SM FEW023 SCT050 BKN140 BKN180 24/16 A2990 RMK AO2 SLP125 60001 T02440161 10250 20217 56013

More Conditions Fewer Conditions

10-Day Weather Forecast

Almanac

Astronomy

Aug. 20, 2014 Rise Set
Actual Time 6:15 AM PDT 7:27 PM PDT
Civil Twilight 5:49 AM PDT 7:53 PM PDT
Nautical Twilight 5:19 AM PDT 8:24 PM PDT
Astronomical Twilight 4:47 AM PDT 8:55 PM PDT
Moon 2:05 AM PDT 4:10 PM PDT
Length of Visible Light 14h 03m
Length of Day
13h 12m
Tomorrow will be 1m 49s shorter.
Waning Crescent, 18% of the Moon is Illuminated
Today
Waning Crescent
Aug 25
New
Sep 2
First Quarter
Sep 8
Full
Sep 15
Last Quarter

Today's Extremes

State Highs State Lows

Community

WunderPhotos

Upload Photos

1,745,801 photos uploaded!

Nearby

Air Quality

  Air Quality AQ Index Pollutant
Yesterday Good
PM2.5
Yesterday Good
OZONE
Current Good
OZONE
Current Good
PM2.5
Wednesday Good
PM2.5
Wednesday Good
OZONE
Thursday Good
PM2.5
Thursday Good
OZONE

Snow Depth

Station Depth Elevation
Leavitt Lake 0 in 9400 ft
Leavitt Meadows 0 in 7200 ft
Adin Mountain 0 in 6200 ft
Cedar Pass 0 in 7100 ft

Earthquake Activity

City Distance Mag. Time & Date
Malibu Beach, California 122 miles 3.4 10:03 AM PDT
2014-08-15
Yucca Valley, California 116 miles 3.8 8:57 PM PDT
2014-08-14
Salton City, California 77 miles 2.6 6:58 AM PDT
2014-08-14
Ojai, California 168 miles 2.6 8:43 PM PDT
2014-08-13
Minimum magnitude displayed is 2.5.

Coastal Water Temperatures

Place Temperature
La Jolla, CA 73.0 °F
San Diego, CA 75.0 °F

Nearby Weather Stations